Ely, MN

8:39 AM CDT on September 28, 2016 (GMT -0500)
Spaulding | | Change Station

Elev 1345 ft 47.92 °N, 91.83 °W | Updated 7 seconds ago

Overcast
Overcast
50.9 °F
Feels Like 50.9 °F
N
1.7
Wind Variable Wind from NE

Today
High -- | Low -- °F
--% Chance of Precip.
Yesterday
High -- | Low -- °F
Precip. -- in
Pressure 30.16 in
Visibility 10.0 miles
Clouds Mostly Cloudy 1300 ft
Overcast 1900 ft
Dew Point 50 °F
Humidity 96%
Rainfall 0.00 in
Snow Depth Not available.
7:03 AM 6:51 PM
Waning Crescent, 6% visible
METAR KELO 281333Z AUTO 02005KT 10SM BKN013 OVC019 10/09 A3016 RMK AO2
Pressure 30.16 in
Visibility 10.0 miles
Clouds Mostly Cloudy 1300 ft
Overcast 1900 ft
Dew Point 50 °F
Humidity 96%
Rainfall 0.00 in
Snow Depth Not available.
7:03 AM 6:51 PM
Waning Crescent, 6% visible
METAR KELO 281333Z AUTO 02005KT 10SM BKN013 OVC019 10/09 A3016 RMK AO2

10-Day Weather Forecast

Almanac

Astronomy

Sep. 28, 2016 Rise Set
Actual Time
Civil Twilight
Nautical Twilight
Astronomical Twilight
Moon
Length of Visible Light
Length of Day
Tomorrow will be .
, % of the Moon is Illuminated

Today's Extremes

State Highs State Lows

Community

WunderPhotos

Upload Photos

1,942,259 photos uploaded!

WunderBlog® & News

Nearby

Air Quality

  Air Quality AQ Index Pollutant
Not available.

Snow Depth

Station Depth Elevation

Earthquake Activity

City Distance Mag. Time & Date
Minimum magnitude displayed is 2.5.

Coastal Water Temperatures

Place Temperature

Stations

Nearby Weather Stations

Station Location Temp. Windchill Dew Point Humidity Wind Precip. Elev Updated Type
                   

Watches & Warnings

There are currently no watches in effect.